sensor_id;sensor_type;location;lat;lon;timestamp;pressure;altitude;pressure_sealevel;temperature;humidity
64632;BME280;58358;50.936;0.246;2022-11-03T00:00:50;100256.51;;;11.19;86.28
64632;BME280;58358;50.936;0.246;2022-11-03T00:03:16;100247.79;;;10.84;88.48
64632;BME280;58358;50.936;0.246;2022-11-03T00:05:41;100248.58;;;11.45;86.27
64632;BME280;58358;50.936;0.246;2022-11-03T00:08:07;100253.14;;;11.21;87.03
64632;BME280;58358;50.936;0.246;2022-11-03T00:10:32;100255.07;;;12.00;84.30
64632;BME280;58358;50.936;0.246;2022-11-03T00:12:58;100245.77;;;11.94;83.92
64632;BME280;58358;50.936;0.246;2022-11-03T00:15:24;100254.20;;;11.52;84.76
64632;BME280;58358;50.936;0.246;2022-11-03T00:17:49;100255.11;;;10.93;87.30
64632;BME280;58358;50.936;0.246;2022-11-03T00:20:15;100249.15;;;11.25;86.86
64632;BME280;58358;50.936;0.246;2022-11-03T00:22:41;100258.28;;;11.45;88.52
64632;BME280;58358;50.936;0.246;2022-11-03T00:25:07;100257.89;;;11.03;89.43
64632;BME280;58358;50.936;0.246;2022-11-03T00:27:32;100253.84;;;11.00;92.55
64632;BME280;58358;50.936;0.246;2022-11-03T00:29:57;100257.04;;;11.28;91.62
64632;BME280;58358;50.936;0.246;2022-11-03T00:32:22;100249.88;;;10.86;92.51
64632;BME280;58358;50.936;0.246;2022-11-03T00:34:49;100255.67;;;10.52;93.29
64632;BME280;58358;50.936;0.246;2022-11-03T00:37:13;100251.57;;;11.10;92.44
64632;BME280;58358;50.936;0.246;2022-11-03T00:39:40;100251.97;;;10.56;93.08
64632;BME280;58358;50.936;0.246;2022-11-03T00:42:04;100252.08;;;10.71;93.25
64632;BME280;58358;50.936;0.246;2022-11-03T00:44:30;100252.62;;;11.20;92.66
64632;BME280;58358;50.936;0.246;2022-11-03T00:46:55;100243.10;;;10.69;92.86
64632;BME280;58358;50.936;0.246;2022-11-03T00:49:21;100252.67;;;11.11;91.59
64632;BME280;58358;50.936;0.246;2022-11-03T00:51:46;100239.92;;;10.46;93.20
64632;BME280;58358;50.936;0.246;2022-11-03T00:54:12;100243.63;;;10.75;92.34
64632;BME280;58358;50.936;0.246;2022-11-03T00:56:39;100227.74;;;10.96;91.95
64632;BME280;58358;50.936;0.246;2022-11-03T00:59:04;100224.23;;;10.52;93.58
64632;BME280;58358;50.936;0.246;2022-11-03T01:01:30;100211.34;;;11.00;91.76
64632;BME280;58358;50.936;0.246;2022-11-03T01:03:56;100209.53;;;10.97;92.33
64632;BME280;58358;50.936;0.246;2022-11-03T01:06:19;100206.42;;;10.55;95.67
64632;BME280;58358;50.936;0.246;2022-11-03T01:08:45;100207.10;;;11.01;94.42
64632;BME280;58358;50.936;0.246;2022-11-03T01:11:12;100195.26;;;10.37;95.79
64632;BME280;58358;50.936;0.246;2022-11-03T01:13:35;100191.99;;;10.81;95.89
64632;BME280;58358;50.936;0.246;2022-11-03T01:16:01;100188.79;;;10.52;96.99
64632;BME280;58358;50.936;0.246;2022-11-03T01:18:26;100179.94;;;10.64;96.73
64632;BME280;58358;50.936;0.246;2022-11-03T01:20:54;100170.97;;;10.69;98.22
64632;BME280;58358;50.936;0.246;2022-11-03T01:23:17;100175.60;;;10.30;98.77
64632;BME280;58358;50.936;0.246;2022-11-03T01:25:43;100174.33;;;10.87;96.82
64632;BME280;58358;50.936;0.246;2022-11-03T01:28:09;100169.33;;;11.12;96.31
64632;BME280;58358;50.936;0.246;2022-11-03T01:30:34;100176.25;;;10.36;97.15
64632;BME280;58358;50.936;0.246;2022-11-03T01:33:01;100183.26;;;10.85;95.43
64632;BME280;58358;50.936;0.246;2022-11-03T01:35:25;100180.76;;;11.12;94.85
64632;BME280;58358;50.936;0.246;2022-11-03T01:37:50;100174.23;;;10.80;95.75
64632;BME280;58358;50.936;0.246;2022-11-03T01:40:16;100171.77;;;10.92;93.99
64632;BME280;58358;50.936;0.246;2022-11-03T01:42:41;100157.60;;;10.67;94.53
64632;BME280;58358;50.936;0.246;2022-11-03T01:45:08;100141.79;;;10.87;94.81
64632;BME280;58358;50.936;0.246;2022-11-03T01:47:33;100130.92;;;11.38;92.83
64632;BME280;58358;50.936;0.246;2022-11-03T01:50:00;100127.81;;;11.15;93.48
64632;BME280;58358;50.936;0.246;2022-11-03T01:52:26;100133.40;;;10.98;94.34
64632;BME280;58358;50.936;0.246;2022-11-03T01:54:54;100137.34;;;11.30;92.82
64632;BME280;58358;50.936;0.246;2022-11-03T01:57:20;100127.15;;;11.11;93.40
64632;BME280;58358;50.936;0.246;2022-11-03T01:59:40;100115.72;;;11.00;95.20
64632;BME280;58358;50.936;0.246;2022-11-03T02:02:05;100113.96;;;10.92;94.42
64632;BME280;58358;50.936;0.246;2022-11-03T02:04:32;100102.75;;;10.57;95.37
64632;BME280;58358;50.936;0.246;2022-11-03T02:07:06;100095.63;;;10.83;94.91
64632;BME280;58358;50.936;0.246;2022-11-03T02:09:22;100089.12;;;10.85;94.36
64632;BME280;58358;50.936;0.246;2022-11-03T02:11:47;100096.98;;;11.13;92.98
64632;BME280;58358;50.936;0.246;2022-11-03T02:14:14;100085.83;;;11.04;93.11
64632;BME280;58358;50.936;0.246;2022-11-03T02:16:40;100080.43;;;11.24;92.50
64632;BME280;58358;50.936;0.246;2022-11-03T02:19:04;100069.68;;;11.13;91.38
64632;BME280;58358;50.936;0.246;2022-11-03T02:21:34;100069.29;;;10.95;93.51
64632;BME280;58358;50.936;0.246;2022-11-03T02:24:00;100066.92;;;10.68;94.42
64632;BME280;58358;50.936;0.246;2022-11-03T02:26:20;100068.10;;;10.96;92.85
64632;BME280;58358;50.936;0.246;2022-11-03T02:28:44;100069.90;;;11.28;92.48
64632;BME280;58358;50.936;0.246;2022-11-03T02:31:15;100058.33;;;11.19;92.18
64632;BME280;58358;50.936;0.246;2022-11-03T02:33:43;100052.29;;;11.64;90.25
64632;BME280;58358;50.936;0.246;2022-11-03T02:36:09;100058.64;;;11.16;91.88
64632;BME280;58358;50.936;0.246;2022-11-03T02:38:31;100045.42;;;11.23;91.12
64632;BME280;58358;50.936;0.246;2022-11-03T02:40:54;100038.02;;;11.02;92.63
64632;BME280;58358;50.936;0.246;2022-11-03T02:43:19;100038.09;;;11.30;92.67
64632;BME280;58358;50.936;0.246;2022-11-03T02:45:46;100034.21;;;11.05;93.43
64632;BME280;58358;50.936;0.246;2022-11-03T02:48:10;100024.20;;;10.68;93.96
64632;BME280;58358;50.936;0.246;2022-11-03T02:50:35;100019.11;;;11.20;92.35
64632;BME280;58358;50.936;0.246;2022-11-03T02:53:01;100009.81;;;11.45;91.00
64632;BME280;58358;50.936;0.246;2022-11-03T02:55:34;100016.85;;;10.73;92.96
64632;BME280;58358;50.936;0.246;2022-11-03T02:57:58;99997.12;;;11.28;91.87
64632;BME280;58358;50.936;0.246;2022-11-03T03:00:18;100002.26;;;11.17;93.20
64632;BME280;58358;50.936;0.246;2022-11-03T03:02:51;99986.61;;;10.82;92.61
64632;BME280;58358;50.936;0.246;2022-11-03T03:05:10;99976.58;;;10.61;93.15
64632;BME280;58358;50.936;0.246;2022-11-03T03:07:37;99953.72;;;10.50;93.63
64632;BME280;58358;50.936;0.246;2022-11-03T03:10:03;99954.48;;;11.37;90.98
64632;BME280;58358;50.936;0.246;2022-11-03T03:12:25;99950.38;;;10.99;92.14
64632;BME280;58358;50.936;0.246;2022-11-03T03:14:53;99941.08;;;11.06;92.21
64632;BME280;58358;50.936;0.246;2022-11-03T03:17:20;99928.86;;;10.74;93.73
64632;BME280;58358;50.936;0.246;2022-11-03T03:19:48;99927.90;;;11.31;92.75
64632;BME280;58358;50.936;0.246;2022-11-03T03:22:12;99931.06;;;11.01;93.51
64632;BME280;58358;50.936;0.246;2022-11-03T03:24:43;99934.21;;;10.72;97.07
64632;BME280;58358;50.936;0.246;2022-11-03T03:27:02;99930.15;;;10.06;98.73
64632;BME280;58358;50.936;0.246;2022-11-03T03:29:32;99918.60;;;10.36;100.00
64632;BME280;58358;50.936;0.246;2022-11-03T03:31:56;99919.56;;;10.09;100.00
64632;BME280;58358;50.936;0.246;2022-11-03T03:34:20;99914.14;;;11.00;98.09
64632;BME280;58358;50.936;0.246;2022-11-03T03:36:43;99901.00;;;10.64;98.76
64632;BME280;58358;50.936;0.246;2022-11-03T03:39:10;99892.94;;;9.92;100.00
64632;BME280;58358;50.936;0.246;2022-11-03T03:41:33;99880.66;;;10.49;100.00
64632;BME280;58358;50.936;0.246;2022-11-03T03:44:00;99867.20;;;10.42;100.00
64632;BME280;58358;50.936;0.246;2022-11-03T03:46:27;99852.70;;;10.52;98.20
64632;BME280;58358;50.936;0.246;2022-11-03T03:48:49;99850.61;;;10.67;97.90
64632;BME280;58358;50.936;0.246;2022-11-03T03:51:16;99840.03;;;10.00;100.00
64632;BME280;58358;50.936;0.246;2022-11-03T03:53:40;99858.41;;;10.06;100.00
64632;BME280;58358;50.936;0.246;2022-11-03T03:56:06;99916.18;;;9.54;100.00
64632;BME280;58358;50.936;0.246;2022-11-03T03:58:31;99915.19;;;10.49;100.00
64632;BME280;58358;50.936;0.246;2022-11-03T04:00:57;99927.06;;;9.94;100.00
64632;BME280;58358;50.936;0.246;2022-11-03T04:03:25;99921.82;;;9.41;100.00
64632;BME280;58358;50.936;0.246;2022-11-03T04:05:48;99905.93;;;9.62;100.00
64632;BME280;58358;50.936;0.246;2022-11-03T04:08:14;99896.65;;;9.73;99.26
64632;BME280;58358;50.936;0.246;2022-11-03T04:10:41;99878.67;;;8.83;100.00
64632;BME280;58358;50.936;0.246;2022-11-03T04:13:05;99883.90;;;9.43;98.07
64632;BME280;58358;50.936;0.246;2022-11-03T04:15:31;99864.56;;;9.46;97.10
64632;BME280;58358;50.936;0.246;2022-11-03T04:17:58;99871.21;;;9.84;96.53
64632;BME280;58358;50.936;0.246;2022-11-03T04:20:22;99877.49;;;10.11;94.88
64632;BME280;58358;50.936;0.246;2022-11-03T04:22:48;99853.20;;;10.31;92.73
64632;BME280;58358;50.936;0.246;2022-11-03T04:25:15;99860.97;;;10.40;93.28
64632;BME280;58358;50.936;0.246;2022-11-03T04:27:39;99854.54;;;10.78;91.41
64632;BME280;58358;50.936;0.246;2022-11-03T04:30:13;99849.38;;;11.13;89.71
64632;BME280;58358;50.936;0.246;2022-11-03T04:32:30;99840.06;;;10.07;95.46
64632;BME280;58358;50.936;0.246;2022-11-03T04:34:57;99836.37;;;9.94;98.45
64632;BME280;58358;50.936;0.246;2022-11-03T04:37:22;99821.07;;;10.14;97.88
64632;BME280;58358;50.936;0.246;2022-11-03T04:39:47;99819.52;;;9.84;98.84
64632;BME280;58358;50.936;0.246;2022-11-03T04:42:16;99817.37;;;9.99;99.71
64632;BME280;58358;50.936;0.246;2022-11-03T04:44:37;99813.69;;;9.59;100.00
64632;BME280;58358;50.936;0.246;2022-11-03T04:47:08;99807.22;;;10.06;99.45
64632;BME280;58358;50.936;0.246;2022-11-03T04:49:29;99813.28;;;10.43;100.00
64632;BME280;58358;50.936;0.246;2022-11-03T04:51:54;99804.37;;;10.03;100.00
64632;BME280;58358;50.936;0.246;2022-11-03T04:54:23;99802.99;;;10.16;100.00
64632;BME280;58358;50.936;0.246;2022-11-03T04:56:45;99809.84;;;9.87;100.00
64632;BME280;58358;50.936;0.246;2022-11-03T04:59:14;99793.68;;;10.17;100.00
64632;BME280;58358;50.936;0.246;2022-11-03T05:01:36;99784.30;;;9.89;100.00
64632;BME280;58358;50.936;0.246;2022-11-03T05:04:07;99780.65;;;9.85;100.00
64632;BME280;58358;50.936;0.246;2022-11-03T05:06:28;99777.64;;;9.84;100.00
64632;BME280;58358;50.936;0.246;2022-11-03T05:08:57;99768.76;;;10.21;100.00
64632;BME280;58358;50.936;0.246;2022-11-03T05:11:20;99761.96;;;10.60;98.66
64632;BME280;58358;50.936;0.246;2022-11-03T05:13:44;99768.98;;;9.82;100.00
64632;BME280;58358;50.936;0.246;2022-11-03T05:16:10;99759.90;;;9.91;100.00
64632;BME280;58358;50.936;0.246;2022-11-03T05:18:37;99754.63;;;10.11;100.00
64632;BME280;58358;50.936;0.246;2022-11-03T05:21:04;99737.99;;;10.08;100.00
64632;BME280;58358;50.936;0.246;2022-11-03T05:23:28;99741.38;;;10.75;99.38
64632;BME280;58358;50.936;0.246;2022-11-03T05:25:53;99730.09;;;10.32;100.00
64632;BME280;58358;50.936;0.246;2022-11-03T05:28:23;99724.98;;;10.47;98.41
64632;BME280;58358;50.936;0.246;2022-11-03T05:30:43;99725.87;;;10.81;97.72
64632;BME280;58358;50.936;0.246;2022-11-03T05:33:21;99708.34;;;10.70;97.48
64632;BME280;58358;50.936;0.246;2022-11-03T05:35:34;99711.93;;;10.17;99.49
64632;BME280;58358;50.936;0.246;2022-11-03T05:38:02;99714.03;;;10.44;97.37
64632;BME280;58358;50.936;0.246;2022-11-03T05:40:25;99705.58;;;10.67;97.87
64632;BME280;58358;50.936;0.246;2022-11-03T05:42:51;99694.54;;;10.52;99.49
64632;BME280;58358;50.936;0.246;2022-11-03T05:45:21;99703.26;;;9.99;100.00
64632;BME280;58358;50.936;0.246;2022-11-03T05:47:43;99695.42;;;10.63;100.00
64632;BME280;58358;50.936;0.246;2022-11-03T05:50:17;99701.53;;;10.40;100.00
64632;BME280;58358;50.936;0.246;2022-11-03T05:52:33;99698.42;;;10.36;100.00
64632;BME280;58358;50.936;0.246;2022-11-03T05:54:59;99694.12;;;10.06;100.00
64632;BME280;58358;50.936;0.246;2022-11-03T05:57:27;99689.31;;;10.08;100.00
64632;BME280;58358;50.936;0.246;2022-11-03T05:59:50;99709.91;;;10.03;100.00
64632;BME280;58358;50.936;0.246;2022-11-03T06:02:28;99696.88;;;9.65;100.00
64632;BME280;58358;50.936;0.246;2022-11-03T06:04:39;99693.59;;;9.51;100.00
64632;BME280;58358;50.936;0.246;2022-11-03T06:07:11;99698.42;;;9.11;99.33
64632;BME280;58358;50.936;0.246;2022-11-03T06:09:32;99686.35;;;8.82;99.81
64632;BME280;58358;50.936;0.246;2022-11-03T06:11:59;99679.22;;;9.08;99.01
64632;BME280;58358;50.936;0.246;2022-11-03T06:14:24;99678.99;;;8.90;99.11
64632;BME280;58358;50.936;0.246;2022-11-03T06:16:50;99651.20;;;8.30;100.00
64632;BME280;58358;50.936;0.246;2022-11-03T06:19:21;99632.75;;;8.66;99.78
64632;BME280;58358;50.936;0.246;2022-11-03T06:21:42;99656.80;;;8.70;98.72
64632;BME280;58358;50.936;0.246;2022-11-03T06:24:08;99661.31;;;9.37;96.28
64632;BME280;58358;50.936;0.246;2022-11-03T06:26:30;99659.76;;;9.80;95.49
64632;BME280;58358;50.936;0.246;2022-11-03T06:28:55;99641.62;;;9.42;96.19
64632;BME280;58358;50.936;0.246;2022-11-03T06:31:23;99672.38;;;9.72;95.59
64632;BME280;58358;50.936;0.246;2022-11-03T06:33:48;99676.47;;;8.90;100.00
64632;BME280;58358;50.936;0.246;2022-11-03T06:36:18;99679.09;;;8.75;100.00
64632;BME280;58358;50.936;0.246;2022-11-03T06:38:38;99673.06;;;8.55;100.00
64632;BME280;58358;50.936;0.246;2022-11-03T06:41:06;99651.29;;;8.62;99.48
64632;BME280;58358;50.936;0.246;2022-11-03T06:43:36;99646.11;;;8.10;100.00
64632;BME280;58358;50.936;0.246;2022-11-03T06:45:58;99655.15;;;8.64;99.80
64632;BME280;58358;50.936;0.246;2022-11-03T06:48:24;99655.09;;;8.61;99.77
64632;BME280;58358;50.936;0.246;2022-11-03T06:50:49;99661.50;;;8.97;99.48
64632;BME280;58358;50.936;0.246;2022-11-03T06:53:19;99644.71;;;9.22;96.85
64632;BME280;58358;50.936;0.246;2022-11-03T06:55:39;99643.25;;;9.63;96.78
64632;BME280;58358;50.936;0.246;2022-11-03T06:58:11;99628.92;;;9.67;96.36
64632;BME280;58358;50.936;0.246;2022-11-03T07:00:30;99623.58;;;10.25;93.58
64632;BME280;58358;50.936;0.246;2022-11-03T07:03:01;99610.21;;;10.05;93.98
64632;BME280;58358;50.936;0.246;2022-11-03T07:05:25;99607.98;;;9.79;95.34
64632;BME280;58358;50.936;0.246;2022-11-03T07:07:47;99601.60;;;9.54;96.79
64632;BME280;58358;50.936;0.246;2022-11-03T07:10:13;99585.79;;;10.36;96.10
64632;BME280;58358;50.936;0.246;2022-11-03T07:12:39;99572.89;;;10.65;94.51
64632;BME280;58358;50.936;0.246;2022-11-03T07:15:15;99588.79;;;9.99;95.91
64632;BME280;58358;50.936;0.246;2022-11-03T07:17:29;99604.04;;;10.19;98.54
64632;BME280;58358;50.936;0.246;2022-11-03T07:19:57;99582.00;;;10.77;96.38
64632;BME280;58358;50.936;0.246;2022-11-03T07:22:22;99608.29;;;10.29;97.22
64632;BME280;58358;50.936;0.246;2022-11-03T07:24:49;99623.47;;;9.69;96.91
64632;BME280;58358;50.936;0.246;2022-11-03T07:27:15;99647.55;;;9.64;95.97
64632;BME280;58358;50.936;0.246;2022-11-03T07:29:38;99618.63;;;8.97;96.78
64632;BME280;58358;50.936;0.246;2022-11-03T07:32:09;99625.40;;;8.69;98.38
64632;BME280;58358;50.936;0.246;2022-11-03T07:34:31;99636.34;;;9.09;95.11
64632;BME280;58358;50.936;0.246;2022-11-03T07:36:55;99636.65;;;9.15;93.73
64632;BME280;58358;50.936;0.246;2022-11-03T07:39:20;99653.23;;;9.42;93.38
64632;BME280;58358;50.936;0.246;2022-11-03T07:41:46;99667.95;;;9.26;93.21
64632;BME280;58358;50.936;0.246;2022-11-03T07:44:14;99669.54;;;8.96;93.42
64632;BME280;58358;50.936;0.246;2022-11-03T07:46:37;99667.11;;;9.34;92.30
64632;BME280;58358;50.936;0.246;2022-11-03T07:49:04;99666.79;;;9.20;90.09
64632;BME280;58358;50.936;0.246;2022-11-03T07:51:31;99639.49;;;10.17;87.22
64632;BME280;58358;50.936;0.246;2022-11-03T07:53:57;99625.06;;;10.21;86.65
64632;BME280;58358;50.936;0.246;2022-11-03T07:56:25;99617.84;;;10.63;84.81
64632;BME280;58358;50.936;0.246;2022-11-03T07:58:49;99602.90;;;9.45;87.20
64632;BME280;58358;50.936;0.246;2022-11-03T08:01:24;99589.91;;;10.56;85.48
64632;BME280;58358;50.936;0.246;2022-11-03T08:03:43;99584.53;;;10.86;83.72
64632;BME280;58358;50.936;0.246;2022-11-03T08:06:03;99599.12;;;8.33;90.35
64632;BME280;58358;50.936;0.246;2022-11-03T08:08:31;99621.47;;;9.90;88.35
64632;BME280;58358;50.936;0.246;2022-11-03T08:10:54;99625.60;;;10.90;83.67
64632;BME280;58358;50.936;0.246;2022-11-03T08:13:20;99620.69;;;11.12;81.93
64632;BME280;58358;50.936;0.246;2022-11-03T08:15:46;99605.78;;;11.24;80.54
64632;BME280;58358;50.936;0.246;2022-11-03T08:18:12;99606.59;;;10.94;80.53
64632;BME280;58358;50.936;0.246;2022-11-03T08:20:38;99612.58;;;11.68;80.28
64632;BME280;58358;50.936;0.246;2022-11-03T08:23:03;99610.64;;;11.58;77.84
64632;BME280;58358;50.936;0.246;2022-11-03T08:25:29;99603.57;;;11.16;78.74
64632;BME280;58358;50.936;0.246;2022-11-03T08:27:55;99600.52;;;12.01;78.49
64632;BME280;58358;50.936;0.246;2022-11-03T08:30:20;99585.38;;;11.38;78.65
64632;BME280;58358;50.936;0.246;2022-11-03T08:32:46;99583.24;;;11.13;80.53
64632;BME280;58358;50.936;0.246;2022-11-03T08:35:11;99583.36;;;9.77;84.97
64632;BME280;58358;50.936;0.246;2022-11-03T08:37:37;99585.00;;;11.02;83.03
64632;BME280;58358;50.936;0.246;2022-11-03T08:40:04;99590.05;;;11.43;80.27
64632;BME280;58358;50.936;0.246;2022-11-03T08:42:28;99594.12;;;10.34;84.12
64632;BME280;58358;50.936;0.246;2022-11-03T08:44:54;99587.40;;;10.05;83.57
64632;BME280;58358;50.936;0.246;2022-11-03T08:47:20;99598.98;;;11.36;79.73
64632;BME280;58358;50.936;0.246;2022-11-03T08:49:46;99579.93;;;11.07;80.31
64632;BME280;58358;50.936;0.246;2022-11-03T08:52:11;99576.09;;;10.29;83.50
64632;BME280;58358;50.936;0.246;2022-11-03T08:54:37;99575.43;;;11.70;79.40
64632;BME280;58358;50.936;0.246;2022-11-03T08:57:03;99569.71;;;11.10;78.88
64632;BME280;58358;50.936;0.246;2022-11-03T08:59:29;99568.47;;;10.17;83.23
64632;BME280;58358;50.936;0.246;2022-11-03T09:01:54;99560.33;;;11.76;79.76
64632;BME280;58358;50.936;0.246;2022-11-03T09:04:21;99553.40;;;11.99;77.03
64632;BME280;58358;50.936;0.246;2022-11-03T09:06:46;99545.44;;;12.46;75.99
64632;BME280;58358;50.936;0.246;2022-11-03T09:09:11;99544.57;;;11.88;76.46
64632;BME280;58358;50.936;0.246;2022-11-03T09:11:37;99546.59;;;12.00;77.38
64632;BME280;58358;50.936;0.246;2022-11-03T09:14:03;99543.08;;;12.44;76.29
64632;BME280;58358;50.936;0.246;2022-11-03T09:16:29;99529.26;;;11.52;78.24
64632;BME280;58358;50.936;0.246;2022-11-03T09:18:55;99516.60;;;11.18;80.19
64632;BME280;58358;50.936;0.246;2022-11-03T09:21:20;99501.56;;;10.56;81.75
64632;BME280;58358;50.936;0.246;2022-11-03T09:23:47;99509.83;;;11.06;81.88
64632;BME280;58358;50.936;0.246;2022-11-03T09:26:12;99510.49;;;10.13;84.19
64632;BME280;58358;50.936;0.246;2022-11-03T09:28:37;99507.66;;;11.16;81.69
64632;BME280;58358;50.936;0.246;2022-11-03T09:31:03;99500.55;;;11.23;80.67
64632;BME280;58358;50.936;0.246;2022-11-03T09:33:29;99498.65;;;10.93;80.03
64632;BME280;58358;50.936;0.246;2022-11-03T09:35:54;99490.92;;;10.26;82.73
64632;BME280;58358;50.936;0.246;2022-11-03T09:38:20;99487.24;;;9.57;85.49
64632;BME280;58358;50.936;0.246;2022-11-03T09:40:46;99482.01;;;11.27;81.02
64632;BME280;58358;50.936;0.246;2022-11-03T09:43:12;99481.37;;;10.76;81.97
64632;BME280;58358;50.936;0.246;2022-11-03T09:45:38;99484.34;;;11.52;79.28
64632;BME280;58358;50.936;0.246;2022-11-03T09:48:03;99475.02;;;11.46;78.59
64632;BME280;58358;50.936;0.246;2022-11-03T09:50:29;99472.79;;;11.97;78.08
64632;BME280;58358;50.936;0.246;2022-11-03T09:52:55;99471.65;;;11.90;78.30
64632;BME280;58358;50.936;0.246;2022-11-03T09:55:22;99472.64;;;11.22;79.55
64632;BME280;58358;50.936;0.246;2022-11-03T09:57:46;99461.86;;;10.90;81.12
64632;BME280;58358;50.936;0.246;2022-11-03T10:00:17;99462.69;;;10.18;84.03
64632;BME280;58358;50.936;0.246;2022-11-03T10:02:37;99461.99;;;10.56;82.91
64632;BME280;58358;50.936;0.246;2022-11-03T10:05:04;99455.47;;;11.61;79.56
64632;BME280;58358;50.936;0.246;2022-11-03T10:07:29;99461.96;;;11.09;80.59
64632;BME280;58358;50.936;0.246;2022-11-03T10:09:55;99465.34;;;11.16;79.39
64632;BME280;58358;50.936;0.246;2022-11-03T10:12:23;99458.58;;;10.80;82.20
64632;BME280;58358;50.936;0.246;2022-11-03T10:14:46;99464.36;;;12.19;77.27
64632;BME280;58358;50.936;0.246;2022-11-03T10:17:16;99465.19;;;12.30;76.11
64632;BME280;58358;50.936;0.246;2022-11-03T10:19:37;99458.48;;;12.46;75.41
64632;BME280;58358;50.936;0.246;2022-11-03T10:22:03;99453.81;;;11.76;77.26
64632;BME280;58358;50.936;0.246;2022-11-03T10:24:28;99455.99;;;11.01;80.41
64632;BME280;58358;50.936;0.246;2022-11-03T10:26:54;99454.56;;;12.15;77.65
64632;BME280;58358;50.936;0.246;2022-11-03T10:29:22;99450.82;;;11.99;78.63
64632;BME280;58358;50.936;0.246;2022-11-03T10:31:48;99450.02;;;10.98;82.26
64632;BME280;58358;50.936;0.246;2022-11-03T10:34:23;99455.11;;;10.41;83.02
64632;BME280;58358;50.936;0.246;2022-11-03T10:36:39;99462.06;;;10.42;83.68
64632;BME280;58358;50.936;0.246;2022-11-03T10:41:30;99458.29;;;11.00;82.60
64632;BME280;58358;50.936;0.246;2022-11-03T10:44:02;99447.97;;;10.58;83.15
64632;BME280;58358;50.936;0.246;2022-11-03T10:46:21;99447.74;;;10.26;86.33
64632;BME280;58358;50.936;0.246;2022-11-03T10:49:00;99438.25;;;10.44;84.08
64632;BME280;58358;50.936;0.246;2022-11-03T10:51:14;99429.05;;;10.24;85.24
64632;BME280;58358;50.936;0.246;2022-11-03T10:53:37;99427.83;;;10.07;84.54
64632;BME280;58358;50.936;0.246;2022-11-03T10:56:03;99430.29;;;11.73;80.47
64632;BME280;58358;50.936;0.246;2022-11-03T10:58:29;99429.82;;;11.08;83.01
64632;BME280;58358;50.936;0.246;2022-11-03T11:00:54;99429.00;;;10.98;83.85
64632;BME280;58358;50.936;0.246;2022-11-03T11:03:21;99431.85;;;9.92;87.06
64632;BME280;58358;50.936;0.246;2022-11-03T11:05:46;99426.66;;;10.43;84.86
64632;BME280;58358;50.936;0.246;2022-11-03T11:08:21;99424.69;;;10.48;85.03
64632;BME280;58358;50.936;0.246;2022-11-03T11:10:42;99421.82;;;10.06;89.14
64632;BME280;58358;50.936;0.246;2022-11-03T11:13:05;99415.49;;;9.97;86.55
64632;BME280;58358;50.936;0.246;2022-11-03T11:15:36;99411.01;;;10.91;84.00
64632;BME280;58358;50.936;0.246;2022-11-03T11:17:56;99398.93;;;10.93;83.75
64632;BME280;58358;50.936;0.246;2022-11-03T11:20:32;99392.02;;;11.37;81.54
64632;BME280;58358;50.936;0.246;2022-11-03T11:22:46;99391.22;;;10.68;84.34
64632;BME280;58358;50.936;0.246;2022-11-03T11:25:11;99390.47;;;10.66;83.46
64632;BME280;58358;50.936;0.246;2022-11-03T11:30:05;99373.87;;;11.58;80.23
64632;BME280;58358;50.936;0.246;2022-11-03T11:34:54;99343.52;;;12.46;77.92
64632;BME280;58358;50.936;0.246;2022-11-03T11:37:31;99334.85;;;12.58;77.24
64632;BME280;58358;50.936;0.246;2022-11-03T11:39:45;99333.29;;;13.11;75.33
64632;BME280;58358;50.936;0.246;2022-11-03T11:42:12;99333.84;;;11.99;77.78
64632;BME280;58358;50.936;0.246;2022-11-03T11:44:47;99347.97;;;10.43;82.86
64632;BME280;58358;50.936;0.246;2022-11-03T11:47:03;99369.93;;;11.10;82.31
64632;BME280;58358;50.936;0.246;2022-11-03T11:49:28;99379.46;;;11.73;79.56
64632;BME280;58358;50.936;0.246;2022-11-03T11:51:59;99383.47;;;11.97;78.26
64632;BME280;58358;50.936;0.246;2022-11-03T11:54:20;99401.58;;;12.23;79.06
64632;BME280;58358;50.936;0.246;2022-11-03T11:56:46;99411.75;;;11.00;83.26
64632;BME280;58358;50.936;0.246;2022-11-03T11:59:16;99406.36;;;11.03;82.02
64632;BME280;58358;50.936;0.246;2022-11-03T12:01:36;99409.81;;;12.15;79.20
64632;BME280;58358;50.936;0.246;2022-11-03T12:04:07;99402.96;;;12.10;78.95
64632;BME280;58358;50.936;0.246;2022-11-03T12:06:32;99388.43;;;12.38;77.45
64632;BME280;58358;50.936;0.246;2022-11-03T12:09:04;99390.78;;;12.41;77.72
64632;BME280;58358;50.936;0.246;2022-11-03T12:13:47;99397.72;;;11.66;79.37
64632;BME280;58358;50.936;0.246;2022-11-03T12:18:37;99388.99;;;12.24;76.56
64632;BME280;58358;50.936;0.246;2022-11-03T12:21:04;99382.91;;;12.86;75.50
64632;BME280;58358;50.936;0.246;2022-11-03T12:23:33;99384.46;;;11.31;78.20
64632;BME280;58358;50.936;0.246;2022-11-03T12:25:53;99373.17;;;12.52;78.56
64632;BME280;58358;50.936;0.246;2022-11-03T12:30:45;99368.96;;;10.36;83.69
64632;BME280;58358;50.936;0.246;2022-11-03T12:33:10;99364.51;;;11.26;80.46
64632;BME280;58358;50.936;0.246;2022-11-03T12:35:37;99363.74;;;11.49;79.73
64632;BME280;58358;50.936;0.246;2022-11-03T12:38:02;99363.33;;;12.29;77.61
64632;BME280;58358;50.936;0.246;2022-11-03T12:40:27;99360.96;;;11.28;80.65
64632;BME280;58358;50.936;0.246;2022-11-03T12:42:53;99361.64;;;11.18;81.48
64632;BME280;58358;50.936;0.246;2022-11-03T12:45:19;99357.01;;;11.18;82.31
64632;BME280;58358;50.936;0.246;2022-11-03T12:47:45;99357.29;;;12.06;78.41
64632;BME280;58358;50.936;0.246;2022-11-03T12:50:11;99366.32;;;12.11;78.22
64632;BME280;58358;50.936;0.246;2022-11-03T12:52:36;99373.70;;;12.41;78.47
64632;BME280;58358;50.936;0.246;2022-11-03T12:55:02;99373.24;;;12.67;78.63
64632;BME280;58358;50.936;0.246;2022-11-03T12:57:27;99380.90;;;10.57;83.02
64632;BME280;58358;50.936;0.246;2022-11-03T12:59:53;99371.62;;;12.55;77.07
64632;BME280;58358;50.936;0.246;2022-11-03T13:02:18;99366.40;;;11.87;78.08